createdAt,value
2019-03-31T00:00:16.460Z,64.78
2019-03-31T00:01:16.614Z,64.78
2019-03-31T00:02:16.732Z,64.78
2019-03-31T00:03:16.868Z,64.78
2019-03-31T00:04:16.994Z,64.69
2019-03-31T00:05:17.194Z,64.59
2019-03-31T00:06:17.244Z,64.50
2019-03-31T00:07:17.387Z,64.85
2019-03-31T00:08:17.511Z,65.74
2019-03-31T00:09:17.638Z,65.83
2019-03-31T00:10:17.776Z,65.70
2019-03-31T00:11:17.895Z,65.74
2019-03-31T00:12:18.028Z,65.52
2019-03-31T00:13:18.161Z,65.23
2019-03-31T00:14:18.280Z,65.13
2019-03-31T00:15:18.413Z,65.23
2019-03-31T00:16:18.536Z,65.23
2019-03-31T00:17:18.668Z,65.33
2019-03-31T00:18:18.811Z,65.70
2019-03-31T00:19:18.936Z,65.80
2019-03-31T00:20:19.069Z,65.52
2019-03-31T00:21:19.197Z,65.89
2019-03-31T00:22:19.332Z,65.80
2019-03-31T00:23:19.458Z,65.70
2019-03-31T00:24:19.590Z,65.80
2019-03-31T00:25:19.715Z,65.61
2019-03-31T00:26:19.841Z,65.80
2019-03-31T00:27:19.966Z,65.99
2019-03-31T00:28:20.093Z,65.89
2019-03-31T00:29:20.228Z,65.80
2019-03-31T00:30:20.356Z,66.09
2019-03-31T00:31:22.405Z,65.70
2019-03-31T00:32:20.620Z,65.13
2019-03-31T00:33:20.755Z,65.23
2019-03-31T00:34:20.884Z,65.61
2019-03-31T00:35:21.018Z,65.61
2019-03-31T00:36:21.147Z,65.80
2019-03-31T00:37:21.283Z,65.33
2019-03-31T00:38:21.402Z,65.33
2019-03-31T00:39:21.533Z,65.77
2019-03-31T00:40:21.656Z,65.70
2019-03-31T00:41:21.786Z,65.80
2019-03-31T00:42:21.941Z,65.86
2019-03-31T00:43:22.046Z,65.77
2019-03-31T00:44:22.182Z,65.77
2019-03-31T00:45:22.302Z,65.48
2019-03-31T00:46:22.441Z,65.96
2019-03-31T00:47:22.560Z,65.77
2019-03-31T00:48:22.701Z,65.96
2019-03-31T00:49:22.818Z,66.15
2019-03-31T00:50:22.945Z,65.96
2019-03-31T00:51:23.079Z,66.05
2019-03-31T00:52:23.206Z,65.86
2019-03-31T00:53:23.327Z,66.44
2019-03-31T00:54:23.467Z,66.63
2019-03-31T00:55:23.581Z,66.82
2019-03-31T00:56:23.711Z,67.00
2019-03-31T00:57:23.841Z,67.00
2019-03-31T00:58:23.966Z,67.10
2019-03-31T00:59:24.194Z,67.10
2019-03-31T01:00:24.240Z,66.82
2019-03-31T01:01:35.681Z,66.82
2019-03-31T01:02:24.492Z,66.91
2019-03-31T01:03:24.628Z,66.72
2019-03-31T01:04:24.758Z,67.10
2019-03-31T01:05:24.886Z,66.91
2019-03-31T01:06:25.013Z,67.20
2019-03-31T01:07:25.137Z,67.00
2019-03-31T01:08:25.295Z,67.20
2019-03-31T01:09:25.405Z,66.82
2019-03-31T01:10:25.539Z,67.00
2019-03-31T01:11:25.658Z,66.91
2019-03-31T01:12:25.788Z,66.91
2019-03-31T01:13:25.917Z,66.91
2019-03-31T01:14:26.045Z,67.86
2019-03-31T01:15:26.185Z,67.77
2019-03-31T01:16:26.303Z,67.48
2019-03-31T01:17:26.440Z,67.58
2019-03-31T01:18:26.564Z,67.48
2019-03-31T01:19:26.693Z,67.77
2019-03-31T01:20:26.819Z,68.15
2019-03-31T01:21:26.946Z,68.05
2019-03-31T01:22:27.075Z,67.68
2019-03-31T01:23:27.215Z,67.29
2019-03-31T01:24:27.339Z,67.77
2019-03-31T01:25:27.469Z,67.77
2019-03-31T01:26:27.603Z,67.55
2019-03-31T01:27:27.745Z,67.96
2019-03-31T01:28:27.866Z,68.12
2019-03-31T01:29:27.992Z,67.86
2019-03-31T01:30:28.122Z,68.05
2019-03-31T01:31:28.650Z,68.12
2019-03-31T01:32:28.400Z,68.02
2019-03-31T01:33:28.526Z,67.93
2019-03-31T01:34:28.654Z,68.12
2019-03-31T01:35:28.781Z,67.77
2019-03-31T01:36:28.915Z,68.12
2019-03-31T01:37:29.037Z,67.83
2019-03-31T01:38:29.177Z,68.02
2019-03-31T01:39:29.313Z,68.02
2019-03-31T01:40:29.443Z,68.21
2019-03-31T01:41:29.565Z,68.21
2019-03-31T01:42:29.684Z,68.21
2019-03-31T01:43:29.817Z,68.50
2019-03-31T01:44:29.950Z,68.59
2019-03-31T01:45:30.070Z,68.21
2019-03-31T01:46:30.203Z,67.93
2019-03-31T01:47:30.325Z,68.02
2019-03-31T01:48:30.458Z,67.83
2019-03-31T01:49:30.587Z,68.12
2019-03-31T01:50:30.705Z,68.21
2019-03-31T01:51:30.828Z,68.02
2019-03-31T01:52:30.957Z,68.21
2019-03-31T01:53:31.086Z,68.02
2019-03-31T01:54:31.226Z,68.59
2019-03-31T01:55:31.346Z,68.59
2019-03-31T01:56:31.478Z,68.98
2019-03-31T01:57:31.601Z,68.88
2019-03-31T01:58:31.728Z,68.50
2019-03-31T01:59:31.855Z,68.40
2019-03-31T02:00:31.986Z,68.40
2019-03-31T02:01:32.109Z,68.88
2019-03-31T02:02:32.236Z,68.21
2019-03-31T02:03:32.361Z,68.50
2019-03-31T02:04:32.493Z,68.78
2019-03-31T02:05:32.623Z,68.50
2019-03-31T02:06:32.753Z,68.30
2019-03-31T02:07:32.879Z,68.30
2019-03-31T02:08:33.006Z,68.40
2019-03-31T02:09:33.136Z,68.78
2019-03-31T02:10:33.263Z,69.17
2019-03-31T02:11:33.406Z,69.17
2019-03-31T02:12:33.528Z,69.07
2019-03-31T02:13:33.650Z,68.78
2019-03-31T02:14:33.771Z,68.98
2019-03-31T02:15:33.917Z,69.07
2019-03-31T02:16:34.041Z,68.78
2019-03-31T02:17:34.175Z,69.04
2019-03-31T02:18:34.297Z,69.07
2019-03-31T02:19:34.425Z,69.04
2019-03-31T02:20:34.557Z,68.78
2019-03-31T02:21:34.684Z,68.78
2019-03-31T02:22:34.808Z,68.78
2019-03-31T02:23:34.942Z,68.84
2019-03-31T02:24:35.070Z,69.23
2019-03-31T02:25:35.197Z,68.56
2019-03-31T02:26:35.328Z,68.84
2019-03-31T02:27:35.457Z,68.75
2019-03-31T02:28:35.581Z,68.65
2019-03-31T02:29:35.707Z,69.60
2019-03-31T02:30:35.842Z,69.42
2019-03-31T02:31:35.973Z,69.23
2019-03-31T02:32:36.109Z,69.70
2019-03-31T02:33:36.227Z,68.94
2019-03-31T02:34:36.348Z,68.94
2019-03-31T02:35:36.479Z,69.13
2019-03-31T02:36:36.607Z,68.84
2019-03-31T02:37:36.732Z,68.65
2019-03-31T02:38:36.865Z,68.94
2019-03-31T02:39:36.997Z,69.13
2019-03-31T02:40:37.110Z,69.42
2019-03-31T02:41:37.244Z,69.60
2019-03-31T02:42:37.375Z,69.79
2019-03-31T02:43:37.502Z,69.51
2019-03-31T02:44:37.622Z,69.70
2019-03-31T02:45:37.743Z,69.51
2019-03-31T02:46:37.872Z,69.23
2019-03-31T02:47:38.006Z,69.60
2019-03-31T02:48:38.141Z,69.70
2019-03-31T02:49:38.274Z,69.60
2019-03-31T02:50:38.405Z,69.79
2019-03-31T02:51:38.524Z,69.89
2019-03-31T02:52:38.656Z,69.70
2019-03-31T02:53:38.786Z,69.70
2019-03-31T02:54:38.914Z,69.70
2019-03-31T02:55:39.036Z,69.42
2019-03-31T02:56:39.164Z,69.42
2019-03-31T02:57:39.287Z,69.42
2019-03-31T02:58:39.437Z,69.79
2019-03-31T02:59:39.545Z,69.60
2019-03-31T03:00:39.674Z,69.70
2019-03-31T03:01:39.800Z,69.60
2019-03-31T03:02:42.622Z,69.23
2019-03-31T03:03:40.068Z,69.51
2019-03-31T03:04:40.206Z,69.32
2019-03-31T03:05:40.320Z,69.13
2019-03-31T03:06:40.451Z,69.32
2019-03-31T03:07:40.582Z,69.70
2019-03-31T03:08:40.713Z,69.42
2019-03-31T03:09:40.833Z,70.08
2019-03-31T03:10:40.967Z,70.08
2019-03-31T03:11:41.095Z,69.51
2019-03-31T03:12:41.225Z,69.70
2019-03-31T03:13:41.375Z,69.70
2019-03-31T03:14:41.475Z,69.79
2019-03-31T03:15:41.605Z,69.60
2019-03-31T03:16:41.735Z,69.38
2019-03-31T03:17:41.860Z,69.42
2019-03-31T03:18:41.995Z,69.57
2019-03-31T03:19:42.121Z,69.29
2019-03-31T03:20:42.241Z,69.38
2019-03-31T03:21:42.375Z,69.57
2019-03-31T03:22:42.499Z,69.19
2019-03-31T03:23:42.635Z,69.57
2019-03-31T03:24:42.757Z,69.67
2019-03-31T03:25:55.983Z,69.76
2019-03-31T03:26:43.016Z,69.19
2019-03-31T03:27:43.150Z,69.29
2019-03-31T03:28:43.273Z,69.38
2019-03-31T03:29:43.399Z,69.38
2019-03-31T03:30:43.605Z,69.38
2019-03-31T03:31:43.683Z,69.19
2019-03-31T03:33:12.579Z,69.29
2019-03-31T03:33:43.918Z,70.05
2019-03-31T03:34:44.092Z,69.38
2019-03-31T03:35:44.174Z,69.38
2019-03-31T03:36:44.310Z,69.48
2019-03-31T03:37:44.426Z,70.05
2019-03-31T03:38:44.561Z,69.76
2019-03-31T03:39:44.685Z,69.76
2019-03-31T03:40:44.809Z,69.48
2019-03-31T03:41:44.939Z,69.76
2019-03-31T03:42:45.072Z,69.85
2019-03-31T03:43:55.004Z,69.76
2019-03-31T03:44:45.340Z,69.76
2019-03-31T03:45:45.454Z,69.19
2019-03-31T03:46:45.590Z,69.67
2019-03-31T03:47:45.711Z,69.76
2019-03-31T03:48:45.863Z,70.05
2019-03-31T03:49:45.979Z,70.52
2019-03-31T03:50:46.121Z,71.00
2019-03-31T03:51:46.232Z,71.00
2019-03-31T03:52:46.357Z,70.81
2019-03-31T03:53:46.485Z,70.14
2019-03-31T03:54:46.611Z,70.33
2019-03-31T03:55:46.738Z,70.90
2019-03-31T03:56:46.871Z,70.43
2019-03-31T03:57:46.994Z,71.09
2019-03-31T03:58:47.127Z,70.90
2019-03-31T03:59:47.248Z,70.81
2019-03-31T04:00:47.378Z,70.24
2019-03-31T04:01:47.506Z,70.30
2019-03-31T04:02:47.629Z,70.01
2019-03-31T04:03:47.764Z,70.77
2019-03-31T04:04:47.892Z,70.58
2019-03-31T04:05:48.019Z,70.68
2019-03-31T04:06:48.148Z,70.20
2019-03-31T04:07:48.272Z,70.24
2019-03-31T04:08:48.398Z,70.20
2019-03-31T04:09:48.544Z,70.10
2019-03-31T04:10:48.656Z,70.39
2019-03-31T04:11:48.779Z,70.30
2019-03-31T04:12:48.909Z,70.10
2019-03-31T04:13:49.061Z,70.39
2019-03-31T04:14:49.162Z,70.30
2019-03-31T04:15:49.298Z,70.87
2019-03-31T04:16:49.417Z,70.77
2019-03-31T04:17:49.546Z,70.68
2019-03-31T04:18:49.674Z,71.15
2019-03-31T04:19:49.813Z,70.87
2019-03-31T04:20:49.943Z,70.87
2019-03-31T04:21:50.051Z,70.97
2019-03-31T04:22:50.181Z,71.44
2019-03-31T04:23:50.315Z,70.77
2019-03-31T04:24:50.445Z,70.68
2019-03-31T04:25:50.564Z,71.06
2019-03-31T04:26:50.696Z,70.97
2019-03-31T04:27:50.828Z,71.06
2019-03-31T04:28:50.971Z,70.49
2019-03-31T04:29:51.080Z,70.68
2019-03-31T04:30:51.212Z,70.77
2019-03-31T04:31:51.334Z,70.97
2019-03-31T04:32:51.457Z,70.58
2019-03-31T04:33:53.046Z,70.30
2019-03-31T04:34:51.735Z,70.87
2019-03-31T04:35:51.855Z,70.77
2019-03-31T04:36:51.978Z,71.34
2019-03-31T04:37:52.104Z,71.53
2019-03-31T04:38:52.222Z,71.06
2019-03-31T04:39:52.389Z,70.87
2019-03-31T04:40:52.492Z,71.06
2019-03-31T04:41:52.699Z,71.06
2019-03-31T04:42:52.744Z,71.06
2019-03-31T04:43:52.946Z,70.77
2019-03-31T04:46:24.913Z,70.97
2019-03-31T04:47:24.934Z,70.39
2019-03-31T04:48:25.055Z,70.77
2019-03-31T04:49:25.184Z,70.30
2019-03-31T04:50:25.308Z,70.93
2019-03-31T04:51:25.438Z,70.97
2019-03-31T04:52:25.574Z,71.02
2019-03-31T04:53:25.702Z,70.97
2019-03-31T04:54:25.828Z,70.93
2019-03-31T04:55:25.966Z,71.25
2019-03-31T04:56:26.092Z,71.63
2019-03-31T04:57:26.248Z,71.59
2019-03-31T04:58:26.373Z,71.22
2019-03-31T04:59:26.556Z,71.53
2019-03-31T05:00:26.614Z,71.53
2019-03-31T05:01:26.771Z,71.78
2019-03-31T05:02:27.431Z,71.88
2019-03-31T05:03:27.026Z,71.12
2019-03-31T05:04:27.148Z,71.59
2019-03-31T05:05:27.298Z,70.83
2019-03-31T05:06:27.414Z,71.12
2019-03-31T05:07:27.537Z,70.74
2019-03-31T05:08:27.684Z,71.41
2019-03-31T05:09:27.809Z,71.88
2019-03-31T05:10:27.938Z,71.12
2019-03-31T05:11:28.093Z,71.50
2019-03-31T05:12:28.213Z,71.78
2019-03-31T05:13:28.338Z,71.97
2019-03-31T05:14:28.545Z,72.07
2019-03-31T05:15:28.606Z,71.88
2019-03-31T05:16:28.731Z,71.88
2019-03-31T05:17:28.850Z,72.07
2019-03-31T05:18:28.987Z,72.55
2019-03-31T05:19:29.126Z,72.55
2019-03-31T05:20:29.229Z,72.64
2019-03-31T05:21:29.365Z,73.11
2019-03-31T05:22:29.505Z,73.11
2019-03-31T05:23:29.621Z,72.83
2019-03-31T05:24:29.749Z,72.92
2019-03-31T05:25:29.903Z,73.59
2019-03-31T05:26:30.024Z,73.40
2019-03-31T05:27:30.209Z,73.59
2019-03-31T05:28:30.287Z,73.40
2019-03-31T05:29:30.408Z,73.49
2019-03-31T05:30:30.537Z,73.30
2019-03-31T05:31:30.683Z,73.97
2019-03-31T05:32:30.802Z,73.78
2019-03-31T05:33:30.922Z,74.16
2019-03-31T05:34:31.050Z,74.54
2019-03-31T05:35:31.199Z,74.63
2019-03-31T05:36:31.323Z,74.92
2019-03-31T05:37:31.455Z,75.21
2019-03-31T05:38:31.571Z,75.11
2019-03-31T05:39:31.720Z,74.63
2019-03-31T05:40:31.847Z,74.16
2019-03-31T05:41:31.974Z,73.59
2019-03-31T05:42:32.119Z,73.11
2019-03-31T05:43:32.245Z,72.92
2019-03-31T05:44:32.381Z,72.83
2019-03-31T05:45:32.496Z,72.64
2019-03-31T05:46:32.626Z,72.74
2019-03-31T05:47:32.753Z,73.02
2019-03-31T05:48:32.915Z,73.59
2019-03-31T05:49:33.018Z,73.49
2019-03-31T05:50:33.207Z,73.40
2019-03-31T05:51:33.275Z,73.88
2019-03-31T05:52:33.401Z,73.97
2019-03-31T05:53:33.528Z,73.78
2019-03-31T05:54:33.671Z,74.07
2019-03-31T05:55:33.880Z,74.35
2019-03-31T05:56:33.920Z,74.20
2019-03-31T05:57:34.062Z,74.63
2019-03-31T05:58:34.183Z,74.67
2019-03-31T05:59:34.320Z,74.48
2019-03-31T06:00:34.438Z,74.39
2019-03-31T06:01:34.553Z,74.67
2019-03-31T06:02:34.682Z,74.48
2019-03-31T06:03:34.805Z,74.67
2019-03-31T06:04:34.964Z,74.10
2019-03-31T06:05:35.092Z,73.91
2019-03-31T06:06:37.093Z,74.01
2019-03-31T06:07:35.338Z,74.10
2019-03-31T06:08:35.547Z,74.39
2019-03-31T06:09:35.607Z,74.48
2019-03-31T06:10:35.740Z,74.20
2019-03-31T06:11:35.942Z,74.10
2019-03-31T06:12:36.016Z,74.01
2019-03-31T06:13:36.153Z,74.58
2019-03-31T06:14:36.273Z,74.58
2019-03-31T06:15:36.426Z,74.58
2019-03-31T06:16:36.555Z,74.01
2019-03-31T06:17:36.675Z,74.29
2019-03-31T06:18:36.803Z,74.10
2019-03-31T06:19:36.952Z,74.14
2019-03-31T06:20:37.073Z,74.01
2019-03-31T06:21:37.218Z,74.43
2019-03-31T06:22:37.335Z,74.99
2019-03-31T06:23:37.481Z,74.52
2019-03-31T06:24:37.610Z,74.67
2019-03-31T06:25:37.729Z,74.62
2019-03-31T06:26:37.852Z,75.09
2019-03-31T06:27:37.992Z,75.09
2019-03-31T06:28:38.116Z,74.99
2019-03-31T06:29:38.246Z,74.99
2019-03-31T06:30:38.381Z,74.80
2019-03-31T06:31:38.524Z,74.52
2019-03-31T06:32:38.667Z,74.90
2019-03-31T06:33:38.785Z,75.09
2019-03-31T06:34:47.528Z,75.47
2019-03-31T06:35:39.052Z,74.99
2019-03-31T06:36:39.175Z,75.09
2019-03-31T06:37:39.298Z,74.90
2019-03-31T06:38:39.429Z,75.09
2019-03-31T06:39:39.574Z,74.99
2019-03-31T06:40:39.703Z,74.90
2019-03-31T06:41:39.838Z,74.90
2019-03-31T06:42:39.951Z,75.09
2019-03-31T06:43:40.079Z,74.24
2019-03-31T06:44:40.218Z,74.80
2019-03-31T06:45:40.349Z,74.75
2019-03-31T06:46:40.479Z,74.90
2019-03-31T06:47:40.601Z,75.04
2019-03-31T06:48:40.731Z,74.18
2019-03-31T06:49:40.895Z,74.56
2019-03-31T06:50:41.022Z,74.46
2019-03-31T06:51:41.150Z,74.27
2019-03-31T06:52:41.318Z,74.27
2019-03-31T06:53:41.446Z,75.04
2019-03-31T06:54:41.567Z,74.65
2019-03-31T06:55:41.702Z,74.84
2019-03-31T06:56:41.846Z,74.84
2019-03-31T06:57:41.979Z,75.04
2019-03-31T06:58:42.112Z,74.84
2019-03-31T06:59:42.240Z,75.04
2019-03-31T07:00:42.388Z,74.37
2019-03-31T07:01:42.514Z,74.75
2019-03-31T07:02:42.640Z,74.27
2019-03-31T07:03:42.771Z,74.27
2019-03-31T07:04:42.900Z,74.27
2019-03-31T07:05:43.031Z,74.18
2019-03-31T07:06:43.178Z,74.18
2019-03-31T07:07:43.272Z,74.75
2019-03-31T07:08:43.404Z,74.94
2019-03-31T07:09:43.536Z,74.84
2019-03-31T07:10:43.664Z,74.84
2019-03-31T07:11:43.790Z,74.84
2019-03-31T07:12:43.915Z,75.13
2019-03-31T07:13:44.033Z,75.32
2019-03-31T07:14:44.181Z,75.32
2019-03-31T07:15:44.311Z,75.55
2019-03-31T07:16:44.445Z,75.45
2019-03-31T07:17:44.565Z,75.93
2019-03-31T07:18:44.713Z,75.55
2019-03-31T07:19:44.900Z,75.45
2019-03-31T07:20:44.912Z,75.55
2019-03-31T07:21:45.038Z,75.36
2019-03-31T07:22:45.164Z,75.07
2019-03-31T07:23:45.299Z,74.69
2019-03-31T07:24:45.415Z,75.07
2019-03-31T07:25:45.543Z,74.79
2019-03-31T07:26:45.691Z,74.69
2019-03-31T07:27:45.792Z,74.02
2019-03-31T07:28:45.927Z,74.69
2019-03-31T07:29:46.051Z,74.50
2019-03-31T07:30:46.185Z,73.77
2019-03-31T07:31:46.302Z,73.83
2019-03-31T07:32:46.440Z,74.79
2019-03-31T07:33:46.563Z,74.54
2019-03-31T07:34:46.692Z,74.54
2019-03-31T07:35:46.843Z,74.73
2019-03-31T07:36:46.970Z,75.30
2019-03-31T07:37:47.905Z,74.92
2019-03-31T07:38:47.402Z,74.63
2019-03-31T07:39:47.573Z,74.82
2019-03-31T07:40:47.677Z,75.40
2019-03-31T07:41:47.592Z,75.96
2019-03-31T07:42:50.842Z,75.68
2019-03-31T07:43:47.850Z,75.59
2019-03-31T07:44:48.008Z,75.40
2019-03-31T07:45:48.136Z,75.30
2019-03-31T07:46:48.255Z,75.78
2019-03-31T07:47:48.383Z,75.40
2019-03-31T07:48:48.538Z,75.40
2019-03-31T07:49:48.673Z,75.11
2019-03-31T07:50:48.800Z,75.59
2019-03-31T07:51:48.931Z,75.81
2019-03-31T07:52:49.104Z,75.72
2019-03-31T07:53:49.224Z,75.43
2019-03-31T07:54:49.346Z,75.62
2019-03-31T07:55:49.476Z,75.43
2019-03-31T07:56:49.658Z,75.72
2019-03-31T07:57:49.771Z,75.24
2019-03-31T07:58:49.915Z,74.86
2019-03-31T07:59:50.057Z,74.86
2019-03-31T08:00:50.153Z,74.77
2019-03-31T08:01:50.279Z,75.15
2019-03-31T08:02:50.438Z,75.53
2019-03-31T08:03:50.560Z,75.62
2019-03-31T08:04:50.691Z,75.34
2019-03-31T08:05:50.863Z,75.53
2019-03-31T08:06:51.003Z,75.76
2019-03-31T08:07:51.130Z,75.53
2019-03-31T08:08:53.320Z,76.29
2019-03-31T08:09:51.410Z,76.14
2019-03-31T08:10:51.532Z,76.04
2019-03-31T08:11:51.685Z,75.37
2019-03-31T08:12:51.831Z,75.09
2019-03-31T08:13:55.143Z,75.57
2019-03-31T08:14:52.195Z,74.37
2019-03-31T08:15:52.423Z,73.98
2019-03-31T08:16:52.341Z,73.88
2019-03-31T08:17:52.466Z,73.41
2019-03-31T08:18:52.621Z,73.69
2019-03-31T08:19:52.741Z,72.93
2019-03-31T08:20:52.862Z,72.93
2019-03-31T08:21:52.993Z,73.79
2019-03-31T08:22:53.120Z,73.03
2019-03-31T08:23:53.256Z,73.41
2019-03-31T08:24:53.367Z,72.64
2019-03-31T08:25:53.500Z,72.17
2019-03-31T08:26:53.637Z,71.98
2019-03-31T08:27:53.765Z,71.78
2019-03-31T08:28:53.903Z,71.78
2019-03-31T08:30:00.495Z,72.17
2019-03-31T08:30:54.161Z,72.07
2019-03-31T08:31:54.302Z,71.88
2019-03-31T08:32:54.421Z,71.02
2019-03-31T08:33:54.557Z,70.77
2019-03-31T08:34:54.689Z,70.73
2019-03-31T08:35:54.817Z,70.73
2019-03-31T08:36:54.965Z,71.21
2019-03-31T08:37:55.098Z,71.21
2019-03-31T08:38:55.229Z,70.45
2019-03-31T08:39:55.368Z,71.25
2019-03-31T08:40:55.499Z,71.72
2019-03-31T08:41:55.653Z,72.11
2019-03-31T08:42:55.759Z,72.20
2019-03-31T08:43:55.885Z,71.72
2019-03-31T08:44:56.018Z,72.20
2019-03-31T08:45:56.149Z,71.34
2019-03-31T08:46:56.283Z,70.67
2019-03-31T08:47:56.409Z,71.34
2019-03-31T08:48:56.538Z,72.68
2019-03-31T08:49:56.673Z,73.35
2019-03-31T08:50:56.806Z,72.62
2019-03-31T08:51:56.945Z,71.86
2019-03-31T08:52:57.072Z,72.24
2019-03-31T08:53:57.199Z,71.86
2019-03-31T08:54:57.329Z,71.19
2019-03-31T08:55:57.458Z,71.22
2019-03-31T08:56:57.628Z,71.19
2019-03-31T08:57:57.754Z,71.03
2019-03-31T08:58:57.894Z,70.84
2019-03-31T08:59:58.035Z,70.36
2019-03-31T09:00:58.167Z,70.36
2019-03-31T09:01:58.298Z,70.46
2019-03-31T09:02:58.512Z,70.36
2019-03-31T09:03:58.576Z,70.07
2019-03-31T09:04:58.708Z,69.41
2019-03-31T09:06:02.031Z,69.79
2019-03-31T09:06:58.981Z,69.21
2019-03-31T09:07:59.108Z,68.58
2019-03-31T09:08:59.247Z,68.87
2019-03-31T09:09:59.375Z,68.68
2019-03-31T09:10:59.526Z,67.72
2019-03-31T09:11:59.648Z,67.91
2019-03-31T09:12:59.813Z,68.01
2019-03-31T09:13:59.944Z,68.20
2019-03-31T09:15:00.340Z,67.43
2019-03-31T09:16:00.208Z,66.96
2019-03-31T09:17:00.358Z,67.34
2019-03-31T09:18:00.493Z,68.29
2019-03-31T09:19:00.626Z,68.52
2019-03-31T09:20:00.751Z,67.27
2019-03-31T09:21:00.883Z,66.61
2019-03-31T09:22:01.020Z,66.70
2019-03-31T09:23:01.150Z,66.89
2019-03-31T09:24:01.301Z,67.08
2019-03-31T09:25:01.445Z,67.18
2019-03-31T09:26:01.574Z,65.94
2019-03-31T09:27:01.738Z,64.82
2019-03-31T09:28:01.879Z,64.34
2019-03-31T09:29:02.012Z,64.02
2019-03-31T09:30:02.149Z,64.88
2019-03-31T09:31:02.319Z,64.98
2019-03-31T09:32:02.438Z,64.88
2019-03-31T09:33:02.579Z,65.36
2019-03-31T09:34:02.718Z,66.22
2019-03-31T09:35:02.877Z,65.74
2019-03-31T09:36:15.335Z,65.74
2019-03-31T09:37:03.157Z,65.84
2019-03-31T09:38:03.275Z,65.01
2019-03-31T09:39:03.433Z,64.92
2019-03-31T09:40:03.558Z,65.74
2019-03-31T09:41:03.700Z,66.25
2019-03-31T09:42:03.820Z,65.88
2019-03-31T09:43:03.993Z,66.16
2019-03-31T09:44:04.110Z,65.39
2019-03-31T09:45:04.247Z,65.30
2019-03-31T09:46:04.373Z,64.82
2019-03-31T09:47:04.519Z,65.11
2019-03-31T09:48:04.655Z,64.63
2019-03-31T09:49:04.794Z,65.39
2019-03-31T09:50:04.925Z,64.92
2019-03-31T09:51:05.063Z,64.72
2019-03-31T09:52:05.173Z,65.78
2019-03-31T09:53:05.335Z,65.78
2019-03-31T09:54:05.474Z,66.25
2019-03-31T09:55:05.624Z,66.06
2019-03-31T09:56:05.751Z,65.97
2019-03-31T09:57:05.884Z,66.09
2019-03-31T09:58:06.022Z,65.81
2019-03-31T09:59:06.143Z,65.81
2019-03-31T10:00:06.280Z,65.23
2019-03-31T10:01:08.095Z,66.19
2019-03-31T10:02:06.549Z,67.15
2019-03-31T10:03:06.680Z,65.81
2019-03-31T10:04:06.819Z,66.00
2019-03-31T10:05:06.954Z,66.48
2019-03-31T10:06:10.923Z,66.00
2019-03-31T10:07:07.211Z,65.52
2019-03-31T10:08:07.353Z,64.85
2019-03-31T10:09:07.524Z,64.28
2019-03-31T10:10:08.540Z,64.85
2019-03-31T10:11:07.813Z,64.95
2019-03-31T10:12:07.954Z,64.76
2019-03-31T10:13:08.082Z,64.66
2019-03-31T10:14:08.211Z,65.14
2019-03-31T10:15:08.350Z,64.18
2019-03-31T10:16:08.471Z,63.89
2019-03-31T10:17:08.609Z,63.22
2019-03-31T10:18:08.741Z,63.42
2019-03-31T10:19:08.883Z,63.32
2019-03-31T10:20:09.011Z,63.42
2019-03-31T10:21:09.144Z,64.28
2019-03-31T10:22:09.301Z,65.14
2019-03-31T10:23:09.422Z,64.47
2019-03-31T10:24:09.571Z,63.42
2019-03-31T10:25:13.123Z,63.73
2019-03-31T10:26:09.853Z,64.22
2019-03-31T10:27:09.982Z,63.64
2019-03-31T10:28:10.117Z,63.06
2019-03-31T10:29:10.285Z,62.59
2019-03-31T10:30:10.392Z,62.96
2019-03-31T10:31:10.527Z,62.59
2019-03-31T10:32:10.672Z,62.49
2019-03-31T10:33:10.801Z,62.87
2019-03-31T10:34:10.942Z,62.10
2019-03-31T10:35:11.065Z,62.10
2019-03-31T10:36:12.822Z,62.68
2019-03-31T10:37:11.343Z,62.49
2019-03-31T10:38:11.483Z,62.96
2019-03-31T10:39:11.611Z,64.05
2019-03-31T10:40:11.741Z,64.53
2019-03-31T10:41:11.885Z,63.19
2019-03-31T10:42:12.019Z,62.71
2019-03-31T10:43:12.150Z,63.48
2019-03-31T10:44:12.301Z,63.32
2019-03-31T10:45:12.441Z,63.70
2019-03-31T10:46:12.580Z,62.71
2019-03-31T10:47:12.702Z,62.65
2019-03-31T10:48:20.217Z,63.60
2019-03-31T10:49:12.967Z,61.98
2019-03-31T10:50:13.111Z,61.30
2019-03-31T10:51:13.267Z,60.66
2019-03-31T10:52:13.370Z,60.38
2019-03-31T10:53:13.502Z,60.38
2019-03-31T10:54:13.650Z,60.38
2019-03-31T10:55:13.781Z,60.28
2019-03-31T10:56:13.899Z,62.39
2019-03-31T10:57:14.037Z,59.70
2019-03-31T10:58:14.190Z,59.70
2019-03-31T10:59:14.323Z,58.58
2019-03-31T11:00:14.461Z,59.03
2019-03-31T11:01:14.645Z,59.80
2019-03-31T11:02:14.715Z,59.89
2019-03-31T11:03:14.859Z,60.85
2019-03-31T11:04:15.017Z,61.91
2019-03-31T11:05:15.155Z,61.40
2019-03-31T11:06:15.287Z,61.49
2019-03-31T11:07:15.412Z,62.10
2019-03-31T11:08:15.546Z,61.62
2019-03-31T11:09:15.677Z,61.72
2019-03-31T11:10:15.812Z,62.01
2019-03-31T11:11:15.969Z,61.62
2019-03-31T11:12:16.092Z,61.52
2019-03-31T11:13:16.225Z,60.85
2019-03-31T11:14:16.362Z,59.83
2019-03-31T11:15:16.496Z,58.48
2019-03-31T11:16:16.645Z,58.17
2019-03-31T11:17:16.791Z,58.64
2019-03-31T11:18:16.926Z,59.41
2019-03-31T11:19:17.071Z,59.12
2019-03-31T11:20:17.213Z,59.03
2019-03-31T11:21:17.343Z,59.96
2019-03-31T11:22:17.479Z,59.48
2019-03-31T11:23:17.635Z,59.29
2019-03-31T11:24:17.765Z,59.67
2019-03-31T11:25:21.197Z,59.67
2019-03-31T11:26:18.035Z,60.44
2019-03-31T11:27:18.168Z,60.25
2019-03-31T11:28:18.318Z,61.46
2019-03-31T11:29:18.442Z,61.94
2019-03-31T11:30:18.591Z,62.04
2019-03-31T11:31:18.725Z,61.66
2019-03-31T11:32:18.857Z,61.72
2019-03-31T11:33:18.992Z,61.82
2019-03-31T11:34:19.790Z,61.37
2019-03-31T11:35:19.261Z,62.33
2019-03-31T11:36:19.402Z,61.85
2019-03-31T11:37:19.532Z,61.75
2019-03-31T11:38:19.665Z,61.85
2019-03-31T11:39:19.807Z,62.23
2019-03-31T11:40:19.938Z,61.94
2019-03-31T11:41:20.073Z,61.85
2019-03-31T11:42:20.205Z,61.30
2019-03-31T11:43:20.347Z,61.21
2019-03-31T11:44:20.498Z,61.59
2019-03-31T11:45:20.637Z,60.15
2019-03-31T11:46:20.768Z,60.60
2019-03-31T11:47:20.894Z,60.60
2019-03-31T11:48:21.029Z,61.37
2019-03-31T11:49:21.165Z,61.56
2019-03-31T11:50:21.300Z,62.04
2019-03-31T11:51:21.450Z,60.60
2019-03-31T11:52:21.575Z,60.89
2019-03-31T11:53:21.714Z,61.46
2019-03-31T11:54:21.835Z,61.11
2019-03-31T11:55:21.977Z,60.47
2019-03-31T11:56:22.126Z,59.12
2019-03-31T11:57:22.250Z,58.07
2019-03-31T11:58:22.380Z,57.81
2019-03-31T11:59:22.530Z,57.17
2019-03-31T12:00:22.667Z,56.52
2019-03-31T12:01:22.805Z,54.82
2019-03-31T12:02:27.474Z,53.50
2019-03-31T12:03:23.088Z,52.27
2019-03-31T12:04:23.227Z,50.95
2019-03-31T12:05:23.364Z,50.49
2019-03-31T12:06:23.495Z,49.53
2019-03-31T12:07:28.250Z,50.42
2019-03-31T12:08:23.782Z,49.00
2019-03-31T12:09:23.914Z,48.71
2019-03-31T12:10:24.062Z,48.57
2019-03-31T12:11:24.210Z,48.79
2019-03-31T12:12:24.344Z,49.43
2019-03-31T12:13:24.487Z,49.63
2019-03-31T12:14:24.643Z,49.34
2019-03-31T12:15:24.772Z,49.60
2019-03-31T12:16:24.913Z,50.27
2019-03-31T12:17:25.058Z,49.82
2019-03-31T12:18:25.192Z,49.34
2019-03-31T12:19:25.351Z,49.34
2019-03-31T12:20:25.471Z,48.38
2019-03-31T12:21:25.603Z,48.66
2019-03-31T12:22:25.835Z,48.57
2019-03-31T12:23:25.897Z,48.74
2019-03-31T12:24:26.038Z,49.10
2019-03-31T12:25:26.171Z,49.87
2019-03-31T12:26:26.315Z,50.51
2019-03-31T12:27:26.462Z,51.86
2019-03-31T12:28:26.591Z,51.93
2019-03-31T12:29:26.727Z,52.51
2019-03-31T12:30:26.873Z,52.48
2019-03-31T12:31:27.013Z,52.87
2019-03-31T12:32:27.157Z,53.25
2019-03-31T12:33:27.286Z,53.61
2019-03-31T12:34:27.415Z,54.93
2019-03-31T12:35:27.575Z,54.45
2019-03-31T12:36:27.725Z,55.89
2019-03-31T12:37:41.319Z,55.89
2019-03-31T12:38:27.995Z,56.24
2019-03-31T12:39:28.143Z,56.34
2019-03-31T12:40:28.300Z,56.15
2019-03-31T12:41:28.435Z,56.63
2019-03-31T12:42:28.600Z,56.73
2019-03-31T12:43:28.724Z,56.44
2019-03-31T12:44:28.856Z,55.96
2019-03-31T12:45:29.015Z,56.82
2019-03-31T12:46:29.149Z,56.34
2019-03-31T12:47:29.279Z,56.24
2019-03-31T12:48:31.600Z,56.05
2019-03-31T12:49:29.567Z,56.15
2019-03-31T12:50:29.708Z,56.82
2019-03-31T12:51:29.842Z,56.53
2019-03-31T12:52:29.980Z,56.63
2019-03-31T12:53:30.111Z,56.53
2019-03-31T12:54:30.247Z,56.73
2019-03-31T12:55:30.389Z,57.11